createdAt,value
2018-09-09T00:00:00.239Z,18.10
2018-09-09T00:02:33.423Z,18.10
2018-09-09T00:05:06.499Z,18.10
2018-09-09T00:07:39.445Z,18.10
2018-09-09T00:10:12.386Z,18.10
2018-09-09T00:12:45.315Z,18.10
2018-09-09T00:15:18.451Z,18.10
2018-09-09T00:17:51.624Z,18.10
2018-09-09T00:20:24.802Z,18.10
2018-09-09T00:22:58.021Z,18.00
2018-09-09T00:25:31.994Z,18.10
2018-09-09T00:28:05.302Z,18.10
2018-09-09T00:30:38.284Z,18.10
2018-09-09T00:33:11.457Z,18.10
2018-09-09T00:35:44.673Z,18.10
2018-09-09T00:38:18.653Z,18.10
2018-09-09T00:40:58.061Z,18.10
2018-09-09T00:43:31.122Z,18.20
2018-09-09T00:46:11.118Z,18.10
2018-09-09T00:48:44.414Z,18.10
2018-09-09T00:51:23.190Z,18.20
2018-09-09T00:53:56.212Z,18.20
2018-09-09T00:56:29.251Z,18.10
2018-09-09T00:59:02.259Z,18.20
2018-09-09T01:01:35.139Z,18.20
2018-09-09T01:04:14.503Z,18.10
2018-09-09T01:06:47.569Z,18.20
2018-09-09T01:09:25.400Z,18.20
2018-09-09T01:12:04.739Z,18.20
2018-09-09T01:14:37.657Z,18.20
2018-09-09T01:17:10.604Z,18.20
2018-09-09T01:19:49.943Z,18.20
2018-09-09T01:22:22.858Z,18.30
2018-09-09T01:25:03.508Z,18.20
2018-09-09T01:27:37.530Z,18.20
2018-09-09T01:30:13.455Z,18.20
2018-09-09T01:32:52.831Z,18.20
2018-09-09T01:35:25.851Z,18.20
2018-09-09T01:38:05.292Z,18.20
2018-09-09T01:40:38.301Z,18.20
2018-09-09T01:43:11.391Z,18.20
2018-09-09T01:45:45.430Z,18.30
2018-09-09T01:48:18.340Z,18.10
2018-09-09T01:50:51.404Z,18.20
2018-09-09T01:53:24.452Z,18.20
2018-09-09T01:55:57.468Z,18.20
2018-09-09T01:58:30.339Z,18.20
2018-09-09T02:01:03.538Z,18.20
2018-09-09T02:03:36.626Z,18.10
2018-09-09T02:06:09.640Z,18.10
2018-09-09T02:08:43.343Z,18.10
2018-09-09T02:11:16.282Z,18.10
2018-09-09T02:13:49.395Z,18.20
2018-09-09T02:16:22.317Z,18.20
2018-09-09T02:18:55.667Z,18.10
2018-09-09T02:21:28.794Z,18.10
2018-09-09T02:24:01.807Z,18.10
2018-09-09T02:26:35.114Z,18.10
2018-09-09T02:29:14.556Z,18.10
2018-09-09T02:31:47.618Z,18.10
2018-09-09T02:34:20.617Z,18.10
2018-09-09T02:36:53.648Z,18.10
2018-09-09T02:39:26.616Z,18.10
2018-09-09T02:42:06.053Z,18.10
2018-09-09T02:44:38.992Z,18.10
2018-09-09T02:47:12.034Z,18.20
2018-09-09T02:49:45.080Z,18.10
2018-09-09T02:52:18.088Z,18.10
2018-09-09T02:54:51.985Z,18.10
2018-09-09T02:57:25.171Z,18.10
2018-09-09T02:59:59.445Z,18.10
2018-09-09T03:02:32.608Z,18.10
2018-09-09T03:05:06.552Z,18.10
2018-09-09T03:07:39.417Z,18.10
2018-09-09T03:10:12.549Z,18.00
2018-09-09T03:12:46.445Z,18.10
2018-09-09T03:15:19.499Z,18.20
2018-09-09T03:17:52.430Z,18.10
2018-09-09T03:20:25.389Z,18.10
2018-09-09T03:22:58.417Z,18.10
2018-09-09T03:25:31.356Z,18.10
2018-09-09T03:28:10.747Z,18.10
2018-09-09T03:30:45.186Z,18.10
2018-09-09T03:33:18.320Z,18.10
2018-09-09T03:35:51.411Z,18.10
2018-09-09T03:38:24.392Z,18.10
2018-09-09T03:40:57.410Z,18.10
2018-09-09T03:43:31.567Z,18.10
2018-09-09T03:46:05.530Z,18.10
2018-09-09T03:48:38.555Z,18.10
2018-09-09T03:51:11.544Z,18.10
2018-09-09T03:53:44.529Z,18.10
2018-09-09T03:56:17.517Z,18.10
2018-09-09T03:58:50.690Z,18.10
2018-09-09T04:01:23.651Z,18.10
2018-09-09T04:03:56.645Z,18.10
2018-09-09T04:06:29.603Z,18.00
2018-09-09T04:09:03.623Z,18.00
2018-09-09T04:11:36.684Z,18.00
2018-09-09T04:14:10.527Z,18.00
2018-09-09T04:16:44.587Z,18.00
2018-09-09T04:19:23.924Z,18.00
2018-09-09T04:21:56.924Z,17.90
2018-09-09T04:24:29.936Z,18.00
2018-09-09T04:27:03.080Z,17.90
2018-09-09T04:29:42.560Z,17.90
2018-09-09T04:32:15.568Z,17.90
2018-09-09T04:34:48.489Z,17.90
2018-09-09T04:37:21.646Z,17.90
2018-09-09T04:40:00.970Z,17.90
2018-09-09T04:42:40.356Z,17.90
2018-09-09T04:45:19.584Z,17.90
2018-09-09T04:47:52.656Z,17.80
2018-09-09T04:50:32.155Z,17.90
2018-09-09T04:53:05.246Z,17.90
2018-09-09T04:55:38.284Z,18.00
2018-09-09T04:58:11.228Z,18.00
2018-09-09T05:00:44.357Z,17.90
2018-09-09T05:03:17.454Z,17.90
2018-09-09T05:05:50.451Z,17.90
2018-09-09T05:08:23.648Z,18.00
2018-09-09T05:10:56.732Z,18.00
2018-09-09T05:13:29.635Z,17.90
2018-09-09T05:16:09.262Z,18.00
2018-09-09T05:18:42.435Z,18.00
2018-09-09T05:21:15.459Z,17.90
2018-09-09T05:23:54.983Z,18.00
2018-09-09T05:26:28.015Z,17.90
2018-09-09T05:29:00.944Z,18.00
2018-09-09T05:31:34.002Z,17.90
2018-09-09T05:34:12.216Z,17.90
2018-09-09T05:36:46.322Z,18.00
2018-09-09T05:39:25.632Z,17.90
2018-09-09T05:42:01.803Z,18.00
2018-09-09T05:44:34.990Z,18.00
2018-09-09T05:47:14.434Z,18.00
2018-09-09T05:49:48.278Z,18.00
2018-09-09T05:52:21.281Z,18.10
2018-09-09T05:54:54.221Z,18.10
2018-09-09T05:57:27.182Z,18.10
2018-09-09T06:00:00.256Z,18.20
2018-09-09T06:02:33.171Z,18.20
2018-09-09T06:05:06.253Z,18.20
2018-09-09T06:07:39.147Z,18.20
2018-09-09T06:10:12.212Z,18.20
2018-09-09T06:12:45.218Z,18.30
2018-09-09T06:15:20.308Z,18.30
2018-09-09T06:17:53.308Z,18.30
2018-09-09T06:20:26.352Z,18.30
2018-09-09T06:23:05.766Z,18.30
2018-09-09T06:25:45.252Z,18.30
2018-09-09T06:28:24.608Z,18.30
2018-09-09T06:30:57.545Z,18.30
2018-09-09T06:33:30.522Z,18.30
2018-09-09T06:36:09.836Z,18.30
2018-09-09T06:38:42.873Z,18.30
2018-09-09T06:41:16.948Z,18.30
2018-09-09T06:43:50.057Z,18.40
2018-09-09T06:46:29.370Z,18.40
2018-09-09T06:49:02.774Z,18.40
2018-09-09T06:51:36.751Z,18.40
2018-09-09T06:54:09.814Z,18.40
2018-09-09T06:56:43.824Z,18.50
2018-09-09T06:59:16.841Z,18.50
2018-09-09T07:01:56.241Z,18.50
2018-09-09T07:04:30.208Z,18.50
2018-09-09T07:07:03.393Z,18.60
2018-09-09T07:09:36.648Z,18.60
2018-09-09T07:12:09.541Z,18.60
2018-09-09T07:14:42.622Z,18.60
2018-09-09T07:17:21.980Z,18.60
2018-09-09T07:19:54.998Z,18.70
2018-09-09T07:22:28.994Z,18.80
2018-09-09T07:25:08.586Z,18.90
2018-09-09T07:27:48.022Z,18.90
2018-09-09T07:30:21.096Z,18.90
2018-09-09T07:33:00.514Z,18.90
2018-09-09T07:35:39.852Z,18.90
2018-09-09T07:38:13.856Z,18.90
2018-09-09T07:40:46.825Z,18.90
2018-09-09T07:43:19.885Z,19.00
2018-09-09T07:45:52.927Z,19.00
2018-09-09T07:48:32.224Z,19.00
2018-09-09T07:51:05.239Z,19.00
2018-09-09T07:53:38.190Z,19.00
2018-09-09T07:56:11.187Z,19.00
2018-09-09T07:58:50.526Z,19.00
2018-09-09T08:01:24.600Z,19.00
2018-09-09T08:03:57.733Z,19.00
2018-09-09T08:06:30.723Z,19.10
2018-09-09T08:09:05.397Z,19.10
2018-09-09T08:11:39.177Z,19.10
2018-09-09T08:14:12.039Z,19.10
2018-09-09T08:16:51.506Z,19.20
2018-09-09T08:19:30.709Z,19.20
2018-09-09T08:22:03.802Z,19.30
2018-09-09T08:24:36.880Z,19.30
2018-09-09T08:27:09.785Z,19.30
2018-09-09T08:29:42.900Z,19.30
2018-09-09T08:32:15.920Z,19.30
2018-09-09T08:34:49.944Z,19.30
2018-09-09T08:37:23.106Z,19.30
2018-09-09T08:40:02.674Z,19.40
2018-09-09T08:42:42.156Z,19.40
2018-09-09T08:45:15.155Z,19.30
2018-09-09T08:47:48.157Z,19.30
2018-09-09T08:50:21.164Z,19.30
2018-09-09T08:52:54.359Z,19.40
2018-09-09T08:55:33.773Z,19.40
2018-09-09T08:58:06.776Z,19.50
2018-09-09T09:00:46.097Z,19.50
2018-09-09T09:03:25.372Z,19.50
2018-09-09T09:05:59.377Z,19.60
2018-09-09T09:08:38.600Z,19.60
2018-09-09T09:11:11.742Z,19.60
2018-09-09T09:13:44.743Z,19.60
2018-09-09T09:16:17.598Z,19.70
2018-09-09T09:18:50.661Z,19.70
2018-09-09T09:21:30.083Z,19.70
2018-09-09T09:24:03.468Z,19.70
2018-09-09T09:26:36.471Z,19.80
2018-09-09T09:29:09.385Z,19.80
2018-09-09T09:31:42.413Z,19.80
2018-09-09T09:34:15.363Z,19.80
2018-09-09T09:36:48.420Z,19.80
2018-09-09T09:39:21.567Z,19.80
2018-09-09T09:41:54.595Z,19.90
2018-09-09T09:44:28.525Z,19.90
2018-09-09T09:47:02.452Z,19.90
2018-09-09T09:49:35.546Z,19.90
2018-09-09T09:52:09.009Z,19.90
2018-09-09T09:54:42.182Z,19.90
2018-09-09T09:57:15.234Z,19.90
2018-09-09T09:59:48.157Z,20.00
2018-09-09T10:02:27.490Z,20.00
2018-09-09T10:05:00.571Z,20.10
2018-09-09T10:07:39.792Z,20.10
2018-09-09T10:10:12.780Z,20.10
2018-09-09T10:12:45.585Z,20.10
2018-09-09T10:15:18.874Z,20.10
2018-09-09T10:17:58.269Z,20.10
2018-09-09T10:20:31.295Z,20.10
2018-09-09T10:23:05.232Z,20.10
2018-09-09T10:25:38.155Z,20.10
2018-09-09T10:28:11.194Z,20.10
2018-09-09T10:30:44.067Z,20.10
2018-09-09T10:33:16.997Z,20.10
2018-09-09T10:35:50.162Z,20.10
2018-09-09T10:38:25.156Z,20.10
2018-09-09T10:41:04.586Z,20.10
2018-09-09T10:43:37.630Z,20.10
2018-09-09T10:46:10.844Z,20.10
2018-09-09T10:48:43.950Z,20.10
2018-09-09T10:51:16.824Z,20.10
2018-09-09T10:53:49.678Z,20.20
2018-09-09T10:56:29.024Z,20.20
2018-09-09T10:59:08.295Z,20.20
2018-09-09T11:01:41.347Z,20.20
2018-09-09T11:04:14.265Z,20.20
2018-09-09T11:06:47.317Z,20.20
2018-09-09T11:09:20.510Z,20.20
2018-09-09T11:11:53.496Z,20.20
2018-09-09T11:14:27.441Z,20.20
2018-09-09T11:17:00.492Z,20.20
2018-09-09T11:19:34.369Z,20.30
2018-09-09T11:22:13.691Z,20.30
2018-09-09T11:24:46.786Z,20.30
2018-09-09T11:27:19.643Z,20.30
2018-09-09T11:29:52.602Z,20.30
2018-09-09T11:32:25.419Z,20.30
2018-09-09T11:34:58.472Z,20.30
2018-09-09T11:37:37.811Z,20.30
2018-09-09T11:40:16.002Z,20.30
2018-09-09T11:42:48.868Z,20.30
2018-09-09T11:45:21.797Z,20.30
2018-09-09T11:47:54.805Z,20.30
2018-09-09T11:50:27.749Z,20.30
2018-09-09T11:53:07.029Z,20.30
2018-09-09T11:55:46.307Z,20.30
2018-09-09T11:58:20.182Z,20.40
2018-09-09T12:00:53.387Z,20.30
2018-09-09T12:03:26.517Z,20.30
2018-09-09T12:06:00.405Z,20.30
2018-09-09T12:08:33.370Z,20.30
2018-09-09T12:11:12.647Z,20.30
2018-09-09T12:13:46.717Z,20.40
2018-09-09T12:16:19.783Z,20.40
2018-09-09T12:18:52.927Z,20.40
2018-09-09T12:21:25.811Z,20.40
2018-09-09T12:23:58.777Z,20.40
2018-09-09T12:26:32.707Z,20.40
2018-09-09T12:29:05.617Z,20.40
2018-09-09T12:31:38.595Z,20.40
2018-09-09T12:34:18.045Z,20.40
2018-09-09T12:36:50.928Z,20.40
2018-09-09T12:39:23.899Z,20.40
2018-09-09T12:41:56.970Z,20.40
2018-09-09T12:44:42.065Z,20.40
2018-09-09T12:47:20.922Z,20.40
2018-09-09T12:50:00.208Z,20.40
2018-09-09T12:52:33.323Z,20.40
2018-09-09T12:55:06.566Z,20.40
2018-09-09T12:57:40.512Z,20.40
2018-09-09T13:00:19.926Z,20.40
2018-09-09T13:02:53.900Z,20.50
2018-09-09T13:05:26.897Z,20.40
2018-09-09T13:08:06.445Z,20.40
2018-09-09T13:10:40.387Z,20.40
2018-09-09T13:13:20.104Z,20.50
2018-09-09T13:15:53.153Z,20.40
2018-09-09T13:18:26.107Z,20.50
2018-09-09T13:20:59.107Z,20.40
2018-09-09T13:23:31.980Z,20.50
2018-09-09T13:26:04.997Z,20.50
2018-09-09T13:28:38.155Z,20.40
2018-09-09T13:31:11.238Z,20.50
2018-09-09T13:33:44.229Z,20.50
2018-09-09T13:36:23.778Z,20.50
2018-09-09T13:38:56.920Z,20.50
2018-09-09T13:41:36.443Z,20.50
2018-09-09T13:44:09.440Z,20.50
2018-09-09T13:46:42.575Z,20.50
2018-09-09T13:49:15.537Z,20.50
2018-09-09T13:51:48.596Z,20.50
2018-09-09T13:54:21.541Z,20.50
2018-09-09T13:56:54.532Z,20.50
2018-09-09T13:59:27.618Z,20.50
2018-09-09T14:02:01.506Z,20.50
2018-09-09T14:04:34.590Z,20.50
2018-09-09T14:07:08.642Z,20.50
2018-09-09T14:09:41.898Z,20.50
2018-09-09T14:12:14.866Z,20.50
2018-09-09T14:14:47.905Z,20.50
2018-09-09T14:17:20.942Z,20.50
2018-09-09T14:19:53.792Z,20.50
2018-09-09T14:22:26.854Z,20.50
2018-09-09T14:24:59.959Z,20.60
2018-09-09T14:27:39.323Z,20.70
2018-09-09T14:30:12.272Z,20.70
2018-09-09T14:32:45.206Z,20.60
2018-09-09T14:35:19.556Z,20.60
2018-09-09T14:37:52.488Z,20.60
2018-09-09T14:40:25.561Z,20.70
2018-09-09T14:42:58.485Z,20.70
2018-09-09T14:45:31.489Z,20.70
2018-09-09T14:48:04.638Z,20.70
2018-09-09T14:50:37.664Z,20.70
2018-09-09T14:53:17.137Z,20.70
2018-09-09T14:55:50.066Z,20.70
2018-09-09T14:58:23.313Z,20.70
2018-09-09T15:00:56.359Z,20.70
2018-09-09T15:03:29.429Z,20.70
2018-09-09T15:06:08.694Z,20.70
2018-09-09T15:08:48.095Z,20.70
2018-09-09T15:11:27.524Z,20.70
2018-09-09T15:14:06.996Z,20.70
2018-09-09T15:16:40.032Z,20.70
2018-09-09T15:19:12.824Z,20.70
2018-09-09T15:21:52.404Z,20.70
2018-09-09T15:24:31.837Z,20.80
2018-09-09T15:27:04.931Z,20.80
2018-09-09T15:29:44.209Z,20.70
2018-09-09T15:32:17.259Z,20.70
2018-09-09T15:34:56.658Z,20.70
2018-09-09T15:37:30.632Z,20.70
2018-09-09T15:40:03.841Z,20.70
2018-09-09T15:42:36.726Z,20.70
2018-09-09T15:45:09.737Z,20.70
2018-09-09T15:47:42.835Z,20.70
2018-09-09T15:50:16.883Z,20.70
2018-09-09T15:52:49.975Z,20.70
2018-09-09T15:55:22.898Z,20.70
2018-09-09T15:57:56.014Z,20.70
2018-09-09T16:00:28.997Z,20.70
2018-09-09T16:03:08.309Z,20.80
2018-09-09T16:05:41.355Z,20.90
2018-09-09T16:08:14.453Z,20.90
2018-09-09T16:10:47.502Z,20.80
2018-09-09T16:13:21.877Z,20.80
2018-09-09T16:16:01.142Z,20.80
2018-09-09T16:18:34.258Z,20.80
2018-09-09T16:21:07.115Z,20.80
2018-09-09T16:23:45.862Z,20.80
2018-09-09T16:26:19.086Z,20.80
2018-09-09T16:28:52.146Z,20.80
2018-09-09T16:31:26.152Z,20.80
2018-09-09T16:34:05.702Z,20.90
2018-09-09T16:36:38.754Z,21.00
2018-09-09T16:39:18.198Z,20.80
2018-09-09T16:57:21.440Z,20.60
2018-09-09T16:59:55.565Z,20.50
2018-09-09T17:02:29.551Z,20.50
2018-09-09T17:05:03.282Z,20.50
2018-09-09T17:07:37.125Z,20.50
2018-09-09T17:10:13.550Z,20.50
2018-09-09T17:12:46.441Z,20.50
2018-09-09T17:15:19.341Z,20.50
2018-09-09T17:20:31.686Z,20.50
2018-09-09T17:23:04.666Z,20.50
2018-09-09T17:25:37.529Z,20.60
2018-09-09T17:28:10.514Z,20.60
2018-09-09T17:30:45.632Z,20.60
2018-09-09T17:33:18.768Z,20.60
2018-09-09T17:38:32.173Z,20.60
2018-09-09T17:41:05.202Z,20.60
2018-09-09T17:43:44.611Z,20.60
2018-09-09T17:46:17.638Z,20.70
2018-09-09T17:51:26.501Z,20.70
2018-09-09T17:54:04.200Z,20.70
2018-09-09T17:56:39.475Z,20.70
2018-09-09T17:59:23.672Z,20.70
2018-09-09T18:01:56.798Z,20.70
2018-09-09T18:04:29.860Z,20.70
2018-09-09T18:07:09.157Z,20.70
2018-09-09T18:09:47.566Z,20.70
2018-09-09T18:12:20.459Z,20.80
2018-09-09T18:14:59.683Z,20.70
2018-09-09T18:17:39.065Z,20.70
2018-09-09T18:20:12.025Z,20.70
2018-09-09T18:22:53.335Z,20.60
2018-09-09T18:25:37.348Z,20.60
2018-09-09T18:28:19.637Z,20.50
2018-09-09T18:30:53.677Z,20.50
2018-09-09T18:33:32.901Z,20.50
2018-09-09T18:36:12.245Z,20.50
2018-09-09T18:38:45.186Z,20.50
2018-09-09T18:41:18.224Z,20.50
2018-09-09T18:43:56.142Z,20.50
2018-09-09T18:46:29.290Z,20.40
2018-09-09T18:49:02.199Z,20.40
2018-09-09T18:51:35.166Z,20.40
2018-09-09T18:54:14.405Z,20.40
2018-09-09T18:56:53.807Z,20.40
2018-09-09T18:59:26.833Z,20.30
2018-09-09T19:02:00.781Z,20.30
2018-09-09T19:04:34.031Z,20.30
2018-09-09T19:07:09.113Z,20.30
2018-09-09T19:09:42.095Z,20.20
2018-09-09T19:12:16.096Z,20.20
2018-09-09T19:14:55.387Z,20.10
2018-09-09T19:17:28.546Z,20.10
2018-09-09T19:20:05.237Z,20.10
2018-09-09T19:25:13.174Z,20.10
2018-09-09T19:27:47.273Z,20.00
2018-09-09T19:30:26.497Z,20.00
2018-09-09T19:32:59.452Z,20.00
2018-09-09T19:35:38.755Z,19.90
2018-09-09T19:38:18.041Z,19.90
2018-09-09T19:40:57.341Z,19.90
2018-09-09T19:43:37.204Z,19.90
2018-09-09T19:48:49.354Z,19.80
2018-09-09T19:51:22.306Z,19.80
2018-09-09T19:56:34.436Z,19.80
2018-09-09T19:59:07.303Z,19.80
2018-09-09T20:09:26.389Z,19.70
2018-09-09T20:12:05.806Z,19.70
2018-09-09T20:14:38.823Z,19.70
2018-09-09T20:17:11.806Z,19.70
2018-09-09T20:19:50.986Z,19.70
2018-09-09T20:22:24.007Z,19.60
2018-09-09T20:25:00.659Z,19.60
2018-09-09T20:27:33.563Z,19.60
2018-09-09T20:30:16.749Z,19.60
2018-09-09T20:32:50.738Z,19.60
2018-09-09T20:35:23.726Z,19.50
2018-09-09T20:37:56.634Z,19.50
2018-09-09T20:40:29.736Z,19.50
2018-09-09T20:43:03.870Z,19.50
2018-09-09T20:45:40.552Z,19.50
2018-09-09T20:48:13.426Z,19.40
2018-09-09T20:50:46.554Z,19.40
2018-09-09T20:53:20.726Z,19.40
2018-09-09T20:55:54.663Z,19.40
2018-09-09T20:58:27.773Z,19.40
2018-09-09T21:01:00.824Z,19.40
2018-09-09T21:03:33.663Z,19.30
2018-09-09T21:06:07.754Z,19.40
2018-09-09T21:08:46.949Z,19.30
2018-09-09T21:11:19.949Z,19.30
2018-09-09T21:13:53.986Z,19.20
2018-09-09T21:16:27.081Z,19.20
2018-09-09T21:19:01.121Z,19.30
2018-09-09T21:21:34.427Z,19.30
2018-09-09T21:24:11.078Z,19.20
2018-09-09T21:26:44.097Z,19.20
2018-09-09T21:29:16.927Z,19.20
2018-09-09T21:31:49.931Z,19.10
2018-09-09T21:34:29.276Z,19.10
2018-09-09T21:37:10.845Z,19.10
2018-09-09T21:39:43.808Z,19.10
2018-09-09T21:42:16.829Z,19.00
2018-09-09T21:44:49.701Z,19.00
2018-09-09T21:47:22.732Z,19.00
2018-09-09T21:49:55.841Z,19.00
2018-09-09T21:52:35.280Z,19.00
2018-09-09T21:55:08.195Z,19.00
2018-09-09T21:57:41.242Z,19.00
2018-09-09T22:00:14.185Z,19.10
2018-09-09T22:02:47.138Z,19.10
2018-09-09T22:05:20.165Z,19.10
2018-09-09T22:07:53.250Z,19.00
2018-09-09T22:10:26.213Z,19.10
2018-09-09T22:13:03.860Z,19.10
2018-09-09T22:15:36.857Z,19.10
2018-09-09T22:18:15.958Z,19.10
2018-09-09T22:20:55.082Z,19.10
2018-09-09T22:23:28.190Z,19.10
2018-09-09T22:26:01.271Z,19.10
2018-09-09T22:28:34.333Z,19.10
2018-09-09T22:31:07.183Z,19.10
2018-09-09T22:33:40.132Z,19.10
2018-09-09T22:36:13.111Z,19.10
2018-09-09T22:38:49.179Z,19.10
2018-09-09T22:41:23.222Z,19.10
2018-09-09T22:44:05.076Z,19.10
2018-09-09T22:46:37.992Z,19.10
2018-09-09T22:49:10.936Z,19.10
2018-09-09T22:51:50.217Z,19.10
2018-09-09T22:54:23.180Z,19.10
2018-09-09T22:57:02.546Z,19.20
2018-09-09T22:59:41.253Z,19.20
2018-09-09T23:02:14.243Z,19.10
2018-09-09T23:07:22.120Z,19.20
2018-09-09T23:09:55.184Z,19.10
2018-09-09T23:12:28.189Z,19.20
2018-09-09T23:15:08.870Z,19.20
2018-09-09T23:17:41.696Z,19.20
2018-09-09T23:20:21.207Z,19.20
2018-09-09T23:22:54.158Z,19.20
2018-09-09T23:25:27.176Z,19.20
2018-09-09T23:28:01.092Z,19.20
2018-09-09T23:30:33.937Z,19.20
2018-09-09T23:33:06.913Z,19.30
2018-09-09T23:35:39.917Z,19.20
2018-09-09T23:38:16.729Z,19.20
2018-09-09T23:40:49.577Z,19.20
2018-09-09T23:43:28.971Z,19.20
2018-09-09T23:46:01.934Z,19.20
2018-09-09T23:48:34.910Z,19.20
2018-09-09T23:51:07.865Z,19.20
2018-09-09T23:53:40.828Z,19.10
2018-09-09T23:56:19.604Z,19.20
2018-09-09T23:58:52.654Z,19.20
